sensor_id;sensor_type;location;lat;lon;timestamp;pressure;altitude;pressure_sealevel;temperature;humidity
58769;BME280;44536;47.474;19.056;2022-11-13T00:02:54;102186.72;;;6.22;100.00
58769;BME280;44536;47.474;19.056;2022-11-13T00:06:15;102185.97;;;6.17;100.00
58769;BME280;44536;47.474;19.056;2022-11-13T00:09:36;102173.03;;;6.10;100.00
58769;BME280;44536;47.474;19.056;2022-11-13T00:12:56;102174.72;;;6.12;100.00
58769;BME280;44536;47.474;19.056;2022-11-13T00:16:18;102173.06;;;6.08;100.00
58769;BME280;44536;47.474;19.056;2022-11-13T00:19:39;102167.72;;;6.11;100.00
58769;BME280;44536;47.474;19.056;2022-11-13T00:22:59;102173.72;;;6.16;100.00
58769;BME280;44536;47.474;19.056;2022-11-13T00:26:23;102173.84;;;6.12;100.00
58769;BME280;44536;47.474;19.056;2022-11-13T00:29:44;102175.75;;;6.07;100.00
58769;BME280;44536;47.474;19.056;2022-11-13T00:33:05;102173.75;;;6.15;100.00
58769;BME280;44536;47.474;19.056;2022-11-13T00:36:26;102180.72;;;6.17;100.00
58769;BME280;44536;47.474;19.056;2022-11-13T00:39:47;102185.94;;;6.19;100.00
58769;BME280;44536;47.474;19.056;2022-11-13T00:43:07;102184.12;;;6.21;100.00
58769;BME280;44536;47.474;19.056;2022-11-13T00:46:27;102182.31;;;6.23;100.00
58769;BME280;44536;47.474;19.056;2022-11-13T00:49:48;102178.81;;;6.22;100.00
58769;BME280;44536;47.474;19.056;2022-11-13T00:53:09;102176.19;;;6.22;100.00
58769;BME280;44536;47.474;19.056;2022-11-13T00:56:37;102183.06;;;6.26;100.00
58769;BME280;44536;47.474;19.056;2022-11-13T00:59:57;102178.97;;;6.16;100.00
58769;BME280;44536;47.474;19.056;2022-11-13T01:03:17;102173.66;;;6.18;100.00
58769;BME280;44536;47.474;19.056;2022-11-13T01:06:38;102171.56;;;6.29;100.00
58769;BME280;44536;47.474;19.056;2022-11-13T01:09:59;102164.47;;;6.31;100.00
58769;BME280;44536;47.474;19.056;2022-11-13T01:13:20;102166.25;;;6.30;100.00
58769;BME280;44536;47.474;19.056;2022-11-13T01:16:40;102173.28;;;6.30;100.00
58769;BME280;44536;47.474;19.056;2022-11-13T01:20:00;102172.72;;;6.20;100.00
58769;BME280;44536;47.474;19.056;2022-11-13T01:23:21;102166.00;;;6.10;100.00
58769;BME280;44536;47.474;19.056;2022-11-13T01:26:41;102158.00;;;6.13;100.00
58769;BME280;44536;47.474;19.056;2022-11-13T01:30:02;102164.91;;;6.17;100.00
58769;BME280;44536;47.474;19.056;2022-11-13T01:33:22;102153.91;;;6.32;100.00
58769;BME280;44536;47.474;19.056;2022-11-13T01:36:42;102150.47;;;6.58;100.00
58769;BME280;44536;47.474;19.056;2022-11-13T01:40:03;102145.72;;;6.42;100.00
58769;BME280;44536;47.474;19.056;2022-11-13T01:43:31;102148.94;;;6.51;100.00
58769;BME280;44536;47.474;19.056;2022-11-13T01:46:52;102138.59;;;6.45;100.00
58769;BME280;44536;47.474;19.056;2022-11-13T01:50:14;102146.00;;;6.32;100.00
58769;BME280;44536;47.474;19.056;2022-11-13T01:53:35;102132.03;;;6.29;100.00
58769;BME280;44536;47.474;19.056;2022-11-13T01:56:55;102143.69;;;6.22;100.00
58769;BME280;44536;47.474;19.056;2022-11-13T02:00:16;102123.03;;;6.08;100.00
58769;BME280;44536;47.474;19.056;2022-11-13T02:03:37;102123.84;;;6.10;100.00
58769;BME280;44536;47.474;19.056;2022-11-13T02:07:08;102122.72;;;6.19;100.00
58769;BME280;44536;47.474;19.056;2022-11-13T02:10:29;102123.75;;;6.13;100.00
58769;BME280;44536;47.474;19.056;2022-11-13T02:13:49;102121.94;;;6.15;100.00
58769;BME280;44536;47.474;19.056;2022-11-13T02:17:10;102124.53;;;6.17;100.00
58769;BME280;44536;47.474;19.056;2022-11-13T02:24:10;102128.81;;;6.49;100.00
58769;BME280;44536;47.474;19.056;2022-11-13T02:27:34;102116.25;;;6.57;100.00
58769;BME280;44536;47.474;19.056;2022-11-13T02:30:55;102120.19;;;6.72;100.00
58769;BME280;44536;47.474;19.056;2022-11-13T02:34:15;102112.44;;;6.67;100.00
58769;BME280;44536;47.474;19.056;2022-11-13T02:37:36;102112.66;;;6.59;100.00
58769;BME280;44536;47.474;19.056;2022-11-13T02:40:57;102115.13;;;6.66;100.00
58769;BME280;44536;47.474;19.056;2022-11-13T02:44:17;102115.94;;;6.68;100.00
58769;BME280;44536;47.474;19.056;2022-11-13T02:47:37;102113.38;;;6.91;100.00
58769;BME280;44536;47.474;19.056;2022-11-13T02:50:57;102109.06;;;6.88;100.00
58769;BME280;44536;47.474;19.056;2022-11-13T02:54:18;102110.59;;;6.69;100.00
58769;BME280;44536;47.474;19.056;2022-11-13T02:57:38;102106.50;;;6.60;100.00
58769;BME280;44536;47.474;19.056;2022-11-13T03:01:02;102112.00;;;6.53;100.00
58769;BME280;44536;47.474;19.056;2022-11-13T03:04:23;102102.41;;;6.50;100.00
58769;BME280;44536;47.474;19.056;2022-11-13T03:07:43;102099.06;;;6.45;100.00
58769;BME280;44536;47.474;19.056;2022-11-13T03:11:08;102109.75;;;6.41;100.00
58769;BME280;44536;47.474;19.056;2022-11-13T03:14:28;102114.31;;;6.34;100.00
58769;BME280;44536;47.474;19.056;2022-11-13T03:17:49;102110.31;;;6.22;100.00
58769;BME280;44536;47.474;19.056;2022-11-13T03:21:11;102107.50;;;5.99;100.00
58769;BME280;44536;47.474;19.056;2022-11-13T03:24:32;102115.34;;;6.01;100.00
58769;BME280;44536;47.474;19.056;2022-11-13T03:27:52;102110.69;;;6.10;100.00
58769;BME280;44536;47.474;19.056;2022-11-13T03:31:12;102127.56;;;6.03;100.00
58769;BME280;44536;47.474;19.056;2022-11-13T03:34:33;102117.34;;;5.92;100.00
58769;BME280;44536;47.474;19.056;2022-11-13T03:37:53;102124.16;;;6.00;100.00
58769;BME280;44536;47.474;19.056;2022-11-13T03:41:14;102121.84;;;5.87;100.00
58769;BME280;44536;47.474;19.056;2022-11-13T03:44:34;102117.38;;;5.91;100.00
58769;BME280;44536;47.474;19.056;2022-11-13T03:47:54;102113.06;;;5.87;100.00
58769;BME280;44536;47.474;19.056;2022-11-13T03:51:15;102115.97;;;5.78;100.00
58769;BME280;44536;47.474;19.056;2022-11-13T03:54:35;102107.22;;;5.77;100.00
58769;BME280;44536;47.474;19.056;2022-11-13T03:57:55;102114.16;;;5.80;100.00
58769;BME280;44536;47.474;19.056;2022-11-13T04:01:16;102118.59;;;5.78;100.00
58769;BME280;44536;47.474;19.056;2022-11-13T04:04:36;102125.09;;;5.66;100.00
58769;BME280;44536;47.474;19.056;2022-11-13T04:07:57;102113.56;;;5.70;100.00
58769;BME280;44536;47.474;19.056;2022-11-13T04:11:17;102110.94;;;5.70;100.00
58769;BME280;44536;47.474;19.056;2022-11-13T04:14:37;102114.44;;;5.71;100.00
58769;BME280;44536;47.474;19.056;2022-11-13T04:17:58;102105.56;;;5.73;100.00
58769;BME280;44536;47.474;19.056;2022-11-13T04:21:18;102116.00;;;5.76;100.00
58769;BME280;44536;47.474;19.056;2022-11-13T04:24:38;102110.69;;;5.78;100.00
58769;BME280;44536;47.474;19.056;2022-11-13T04:27:59;102119.41;;;5.80;100.00
58769;BME280;44536;47.474;19.056;2022-11-13T04:31:19;102118.66;;;5.76;100.00
58769;BME280;44536;47.474;19.056;2022-11-13T04:34:40;102113.56;;;5.70;100.00
58769;BME280;44536;47.474;19.056;2022-11-13T04:38:00;102112.72;;;5.70;100.00
58769;BME280;44536;47.474;19.056;2022-11-13T04:41:21;102110.78;;;5.75;100.00
58769;BME280;44536;47.474;19.056;2022-11-13T04:45:00;102109.19;;;5.71;100.00
58769;BME280;44536;47.474;19.056;2022-11-13T04:48:21;102103.09;;;5.69;100.00
58769;BME280;44536;47.474;19.056;2022-11-13T04:51:41;102112.81;;;5.67;100.00
58769;BME280;44536;47.474;19.056;2022-11-13T04:55:02;102111.00;;;5.69;100.00
58769;BME280;44536;47.474;19.056;2022-11-13T04:58:22;102112.59;;;5.73;100.00
58769;BME280;44536;47.474;19.056;2022-11-13T05:01:43;102117.69;;;5.79;100.00
58769;BME280;44536;47.474;19.056;2022-11-13T05:05:04;102104.44;;;5.82;100.00
58769;BME280;44536;47.474;19.056;2022-11-13T05:08:25;102106.06;;;5.56;100.00
58769;BME280;44536;47.474;19.056;2022-11-13T05:11:46;102111.59;;;5.46;100.00
58769;BME280;44536;47.474;19.056;2022-11-13T05:15:07;102116.25;;;5.36;100.00
58769;BME280;44536;47.474;19.056;2022-11-13T05:18:28;102111.03;;;5.35;100.00
58769;BME280;44536;47.474;19.056;2022-11-13T05:21:49;102115.25;;;5.40;100.00
58769;BME280;44536;47.474;19.056;2022-11-13T05:25:09;102118.75;;;5.41;100.00
58769;BME280;44536;47.474;19.056;2022-11-13T05:28:30;102114.13;;;5.50;100.00
58769;BME280;44536;47.474;19.056;2022-11-13T05:31:51;102120.38;;;5.46;100.00
58769;BME280;44536;47.474;19.056;2022-11-13T05:35:11;102132.69;;;5.44;100.00
58769;BME280;44536;47.474;19.056;2022-11-13T05:38:31;102121.06;;;5.53;100.00
58769;BME280;44536;47.474;19.056;2022-11-13T05:41:52;102107.16;;;5.48;100.00
58769;BME280;44536;47.474;19.056;2022-11-13T05:45:13;102109.69;;;5.52;100.00
58769;BME280;44536;47.474;19.056;2022-11-13T05:48:34;102105.69;;;5.38;100.00
58769;BME280;44536;47.474;19.056;2022-11-13T05:51:55;102098.56;;;5.41;100.00
58769;BME280;44536;47.474;19.056;2022-11-13T05:55:15;102094.91;;;5.47;100.00
58769;BME280;44536;47.474;19.056;2022-11-13T05:58:39;102090.69;;;5.41;100.00
58769;BME280;44536;47.474;19.056;2022-11-13T06:02:00;102090.53;;;5.47;100.00
58769;BME280;44536;47.474;19.056;2022-11-13T06:05:21;102089.41;;;5.56;100.00
58769;BME280;44536;47.474;19.056;2022-11-13T06:08:41;102091.06;;;5.60;100.00
58769;BME280;44536;47.474;19.056;2022-11-13T06:12:03;102087.81;;;5.50;100.00
58769;BME280;44536;47.474;19.056;2022-11-13T06:15:23;102099.84;;;5.59;100.00
58769;BME280;44536;47.474;19.056;2022-11-13T06:18:44;102098.94;;;5.60;100.00
58769;BME280;44536;47.474;19.056;2022-11-13T06:22:05;102096.03;;;5.71;100.00
58769;BME280;44536;47.474;19.056;2022-11-13T06:25:25;102096.41;;;5.57;100.00
58769;BME280;44536;47.474;19.056;2022-11-13T06:28:46;102099.06;;;5.55;100.00
58769;BME280;44536;47.474;19.056;2022-11-13T06:32:07;102103.97;;;5.69;100.00
58769;BME280;44536;47.474;19.056;2022-11-13T06:35:27;102100.78;;;5.89;100.00
58769;BME280;44536;47.474;19.056;2022-11-13T06:38:48;102106.84;;;5.91;100.00
58769;BME280;44536;47.474;19.056;2022-11-13T06:42:09;102106.00;;;5.90;100.00
58769;BME280;44536;47.474;19.056;2022-11-13T06:45:29;102109.34;;;5.95;100.00
58769;BME280;44536;47.474;19.056;2022-11-13T06:48:50;102108.09;;;6.09;100.00
58769;BME280;44536;47.474;19.056;2022-11-13T06:52:10;102111.41;;;6.15;100.00
58769;BME280;44536;47.474;19.056;2022-11-13T06:55:31;102113.91;;;6.20;100.00
58769;BME280;44536;47.474;19.056;2022-11-13T06:58:52;102119.78;;;6.28;100.00
58769;BME280;44536;47.474;19.056;2022-11-13T07:02:13;102126.47;;;6.40;100.00
58769;BME280;44536;47.474;19.056;2022-11-13T07:05:36;102125.78;;;6.33;100.00
58769;BME280;44536;47.474;19.056;2022-11-13T07:08:57;102125.91;;;6.28;100.00
58769;BME280;44536;47.474;19.056;2022-11-13T07:12:17;102135.00;;;6.48;100.00
58769;BME280;44536;47.474;19.056;2022-11-13T07:15:38;102135.66;;;6.54;100.00
58769;BME280;44536;47.474;19.056;2022-11-13T07:18:59;102143.62;;;6.53;100.00
58769;BME280;44536;47.474;19.056;2022-11-13T07:22:19;102137.03;;;6.68;100.00
58769;BME280;44536;47.474;19.056;2022-11-13T07:25:39;102130.50;;;6.78;100.00
58769;BME280;44536;47.474;19.056;2022-11-13T07:29:00;102128.75;;;6.78;100.00
58769;BME280;44536;47.474;19.056;2022-11-13T07:32:20;102127.16;;;6.74;100.00
58769;BME280;44536;47.474;19.056;2022-11-13T07:35:40;102129.16;;;6.92;100.00
58769;BME280;44536;47.474;19.056;2022-11-13T07:39:01;102129.88;;;6.97;100.00
58769;BME280;44536;47.474;19.056;2022-11-13T07:42:22;102135.28;;;6.93;100.00
58769;BME280;44536;47.474;19.056;2022-11-13T07:45:43;102125.06;;;7.10;100.00
58769;BME280;44536;47.474;19.056;2022-11-13T07:49:04;102125.56;;;7.21;100.00
58769;BME280;44536;47.474;19.056;2022-11-13T07:52:24;102129.59;;;7.31;100.00
58769;BME280;44536;47.474;19.056;2022-11-13T07:55:44;102129.88;;;7.24;100.00
58769;BME280;44536;47.474;19.056;2022-11-13T07:59:05;102128.34;;;7.42;100.00
58769;BME280;44536;47.474;19.056;2022-11-13T08:02:26;102124.44;;;7.53;100.00
58769;BME280;44536;47.474;19.056;2022-11-13T08:05:46;102126.53;;;7.69;100.00
58769;BME280;44536;47.474;19.056;2022-11-13T08:09:06;102126.94;;;7.81;100.00
58769;BME280;44536;47.474;19.056;2022-11-13T08:12:30;102133.59;;;7.91;100.00
58769;BME280;44536;47.474;19.056;2022-11-13T08:15:52;102130.97;;;7.91;100.00
58769;BME280;44536;47.474;19.056;2022-11-13T08:19:16;102135.31;;;7.92;100.00
58769;BME280;44536;47.474;19.056;2022-11-13T08:22:37;102120.69;;;8.07;100.00
58769;BME280;44536;47.474;19.056;2022-11-13T08:26:01;102132.06;;;8.09;100.00
58769;BME280;44536;47.474;19.056;2022-11-13T08:29:22;102132.97;;;8.08;100.00
58769;BME280;44536;47.474;19.056;2022-11-13T08:32:43;102130.03;;;8.39;100.00
58769;BME280;44536;47.474;19.056;2022-11-13T08:36:03;102127.88;;;8.27;100.00
58769;BME280;44536;47.474;19.056;2022-11-13T08:39:24;102124.47;;;8.47;100.00
58769;BME280;44536;47.474;19.056;2022-11-13T08:42:44;102123.25;;;8.77;100.00
58769;BME280;44536;47.474;19.056;2022-11-13T08:46:05;102121.91;;;8.67;100.00
58769;BME280;44536;47.474;19.056;2022-11-13T08:49:25;102123.44;;;8.73;100.00
58769;BME280;44536;47.474;19.056;2022-11-13T08:52:46;102122.34;;;8.78;100.00
58769;BME280;44536;47.474;19.056;2022-11-13T08:56:06;102118.37;;;8.88;100.00
58769;BME280;44536;47.474;19.056;2022-11-13T08:59:26;102118.41;;;9.09;100.00
58769;BME280;44536;47.474;19.056;2022-11-13T09:02:47;102114.09;;;9.06;100.00
58769;BME280;44536;47.474;19.056;2022-11-13T09:06:12;102124.41;;;9.34;98.57
58769;BME280;44536;47.474;19.056;2022-11-13T09:09:33;102119.88;;;9.16;98.94
58769;BME280;44536;47.474;19.056;2022-11-13T09:12:55;102126.41;;;9.07;99.65
58769;BME280;44536;47.474;19.056;2022-11-13T09:16:15;102116.19;;;9.20;100.00
58769;BME280;44536;47.474;19.056;2022-11-13T09:19:36;102130.75;;;9.30;98.97
58769;BME280;44536;47.474;19.056;2022-11-13T09:22:57;102123.19;;;9.41;98.60
58769;BME280;44536;47.474;19.056;2022-11-13T09:26:18;102128.41;;;9.63;96.77
58769;BME280;44536;47.474;19.056;2022-11-13T09:29:39;102129.00;;;9.49;96.88
58769;BME280;44536;47.474;19.056;2022-11-13T09:32:59;102113.78;;;9.75;96.70
58769;BME280;44536;47.474;19.056;2022-11-13T09:36:20;102112.06;;;9.92;94.10
58769;BME280;44536;47.474;19.056;2022-11-13T09:39:40;102105.81;;;9.93;94.63
58769;BME280;44536;47.474;19.056;2022-11-13T09:43:02;102105.47;;;10.01;91.33
58769;BME280;44536;47.474;19.056;2022-11-13T09:49:45;102112.44;;;9.85;94.19
58769;BME280;44536;47.474;19.056;2022-11-13T09:53:07;102101.56;;;10.10;91.91
58769;BME280;44536;47.474;19.056;2022-11-13T09:56:30;102095.72;;;10.22;92.02
58769;BME280;44536;47.474;19.056;2022-11-13T09:59:55;102088.16;;;10.50;90.80
58769;BME280;44536;47.474;19.056;2022-11-13T10:03:31;102079.25;;;10.51;89.51
58769;BME280;44536;47.474;19.056;2022-11-13T10:07:18;102085.34;;;10.53;89.49
58769;BME280;44536;47.474;19.056;2022-11-13T10:17:44;102064.81;;;12.09;82.37
58769;BME280;44536;47.474;19.056;2022-11-13T10:21:11;102057.81;;;12.85;76.89
58769;BME280;44536;47.474;19.056;2022-11-13T10:24:39;102049.81;;;12.24;79.57
58769;BME280;44536;47.474;19.056;2022-11-13T10:28:01;102049.88;;;11.58;82.46
58769;BME280;44536;47.474;19.056;2022-11-13T10:31:43;102043.63;;;11.26;84.31
58769;BME280;44536;47.474;19.056;2022-11-13T10:41:45;102032.88;;;10.60;89.07
58769;BME280;44536;47.474;19.056;2022-11-13T10:45:17;102021.38;;;10.59;89.88
58769;BME280;44536;47.474;19.056;2022-11-13T10:48:38;102013.50;;;10.58;90.06
58769;BME280;44536;47.474;19.056;2022-11-13T10:51:59;102007.56;;;10.53;91.03
58769;BME280;44536;47.474;19.056;2022-11-13T10:58:42;102007.38;;;10.75;90.84
58769;BME280;44536;47.474;19.056;2022-11-13T11:02:20;101997.50;;;10.59;91.39
58769;BME280;44536;47.474;19.056;2022-11-13T11:05:50;101997.91;;;10.69;90.84
58769;BME280;44536;47.474;19.056;2022-11-13T11:09:24;101994.66;;;12.43;84.74
58769;BME280;44536;47.474;19.056;2022-11-13T11:12:55;101984.09;;;15.31;72.08
58769;BME280;44536;47.474;19.056;2022-11-13T11:16:22;101979.75;;;17.99;61.25
58769;BME280;44536;47.474;19.056;2022-11-13T11:19:46;101981.50;;;19.36;54.53
58769;BME280;44536;47.474;19.056;2022-11-13T11:26:36;101976.34;;;21.66;46.36
58769;BME280;44536;47.474;19.056;2022-11-13T11:33:28;101961.72;;;21.87;45.24
58769;BME280;44536;47.474;19.056;2022-11-13T11:36:56;101969.41;;;21.27;45.77
58769;BME280;44536;47.474;19.056;2022-11-13T11:40:26;101970.91;;;22.39;43.50
58769;BME280;44536;47.474;19.056;2022-11-13T11:43:50;101954.31;;;22.34;43.47
58769;BME280;44536;47.474;19.056;2022-11-13T11:47:13;101949.28;;;21.48;44.98
58769;BME280;44536;47.474;19.056;2022-11-13T11:50:37;101956.16;;;22.16;43.99
58769;BME280;44536;47.474;19.056;2022-11-13T12:01:04;101933.75;;;21.60;44.38
58769;BME280;44536;47.474;19.056;2022-11-13T12:11:28;101921.66;;;18.83;51.46
58769;BME280;44536;47.474;19.056;2022-11-13T12:15:03;101918.16;;;18.62;52.23
58769;BME280;44536;47.474;19.056;2022-11-13T12:23:24;101902.47;;;18.14;54.20
58769;BME280;44536;47.474;19.056;2022-11-13T12:29:36;101895.13;;;17.84;54.89
58769;BME280;44536;47.474;19.056;2022-11-13T12:33:18;101885.06;;;17.43;55.98
58769;BME280;44536;47.474;19.056;2022-11-13T12:36:40;101881.13;;;15.87;61.17
58769;BME280;44536;47.474;19.056;2022-11-13T12:40:06;101880.25;;;14.88;65.48
58769;BME280;44536;47.474;19.056;2022-11-13T12:43:32;101875.53;;;14.41;67.82
58769;BME280;44536;47.474;19.056;2022-11-13T12:46:56;101868.78;;;13.96;69.87
58769;BME280;44536;47.474;19.056;2022-11-13T12:50:29;101860.63;;;13.58;71.91
58769;BME280;44536;47.474;19.056;2022-11-13T12:53:53;101853.00;;;12.97;74.95
58769;BME280;44536;47.474;19.056;2022-11-13T13:00:37;101847.41;;;12.87;76.73
58769;BME280;44536;47.474;19.056;2022-11-13T13:04:14;101849.00;;;12.75;77.33
58769;BME280;44536;47.474;19.056;2022-11-13T13:07:51;101852.59;;;13.03;77.21
58769;BME280;44536;47.474;19.056;2022-11-13T13:11:42;101837.69;;;13.55;74.95
58769;BME280;44536;47.474;19.056;2022-11-13T13:21:43;101841.50;;;15.93;64.83
58769;BME280;44536;47.474;19.056;2022-11-13T13:25:05;101835.06;;;16.41;63.18
58769;BME280;44536;47.474;19.056;2022-11-13T13:28:36;101834.47;;;16.38;63.17
58769;BME280;44536;47.474;19.056;2022-11-13T13:46:20;101836.25;;;14.69;68.64
58769;BME280;44536;47.474;19.056;2022-11-13T13:49:41;101820.44;;;14.40;69.73
58769;BME280;44536;47.474;19.056;2022-11-13T13:53:01;101824.88;;;14.14;70.55
58769;BME280;44536;47.474;19.056;2022-11-13T13:56:22;101819.91;;;13.83;72.05
58769;BME280;44536;47.474;19.056;2022-11-13T13:59:43;101820.16;;;13.66;72.21
58769;BME280;44536;47.474;19.056;2022-11-13T14:03:10;101811.12;;;13.27;73.25
58769;BME280;44536;47.474;19.056;2022-11-13T14:06:35;101816.22;;;12.60;77.00
58769;BME280;44536;47.474;19.056;2022-11-13T14:10:14;101812.66;;;12.32;78.28
58769;BME280;44536;47.474;19.056;2022-11-13T14:13:35;101814.81;;;11.81;81.07
58769;BME280;44536;47.474;19.056;2022-11-13T14:16:58;101817.72;;;11.60;82.11
58769;BME280;44536;47.474;19.056;2022-11-13T14:20:19;101819.13;;;11.36;83.91
58769;BME280;44536;47.474;19.056;2022-11-13T14:23:41;101816.91;;;11.28;84.88
58769;BME280;44536;47.474;19.056;2022-11-13T14:27:07;101816.37;;;11.22;84.81
58769;BME280;44536;47.474;19.056;2022-11-13T14:30:28;101808.41;;;11.06;86.20
58769;BME280;44536;47.474;19.056;2022-11-13T14:33:50;101809.00;;;10.80;87.91
58769;BME280;44536;47.474;19.056;2022-11-13T14:37:30;101812.53;;;10.63;89.19
58769;BME280;44536;47.474;19.056;2022-11-13T14:40:52;101810.66;;;10.65;89.71
58769;BME280;44536;47.474;19.056;2022-11-13T14:44:13;101810.28;;;10.55;90.00
58769;BME280;44536;47.474;19.056;2022-11-13T14:51:31;101803.28;;;10.03;93.32
58769;BME280;44536;47.474;19.056;2022-11-13T14:54:59;101807.44;;;10.08;94.50
58769;BME280;44536;47.474;19.056;2022-11-13T14:58:36;101804.78;;;9.91;94.86
58769;BME280;44536;47.474;19.056;2022-11-13T15:01:57;101799.19;;;9.80;96.29
58769;BME280;44536;47.474;19.056;2022-11-13T15:05:18;101799.59;;;9.53;97.34
58769;BME280;44536;47.474;19.056;2022-11-13T15:08:38;101794.97;;;9.40;98.62
58769;BME280;44536;47.474;19.056;2022-11-13T15:11:58;101786.28;;;9.19;100.00
58769;BME280;44536;47.474;19.056;2022-11-13T15:15:20;101797.66;;;9.02;100.00
58769;BME280;44536;47.474;19.056;2022-11-13T15:18:43;101788.56;;;8.89;100.00
58769;BME280;44536;47.474;19.056;2022-11-13T15:22:11;101782.72;;;8.82;100.00
58769;BME280;44536;47.474;19.056;2022-11-13T15:25:47;101785.44;;;8.81;100.00
58769;BME280;44536;47.474;19.056;2022-11-13T15:29:08;101792.22;;;8.68;100.00
58769;BME280;44536;47.474;19.056;2022-11-13T15:32:28;101787.44;;;8.76;100.00
58769;BME280;44536;47.474;19.056;2022-11-13T15:35:49;101790.56;;;8.65;100.00
58769;BME280;44536;47.474;19.056;2022-11-13T15:39:09;101789.84;;;8.61;100.00
58769;BME280;44536;47.474;19.056;2022-11-13T15:42:42;101782.31;;;8.52;100.00
58769;BME280;44536;47.474;19.056;2022-11-13T15:46:03;101782.78;;;8.42;100.00
58769;BME280;44536;47.474;19.056;2022-11-13T15:49:23;101789.28;;;8.35;100.00
58769;BME280;44536;47.474;19.056;2022-11-13T15:52:45;101787.88;;;8.46;100.00
58769;BME280;44536;47.474;19.056;2022-11-13T15:56:06;101786.63;;;8.35;100.00
58769;BME280;44536;47.474;19.056;2022-11-13T15:59:26;101783.84;;;8.58;100.00
58769;BME280;44536;47.474;19.056;2022-11-13T16:02:47;101795.87;;;8.45;100.00
58769;BME280;44536;47.474;19.056;2022-11-13T16:06:18;101796.00;;;8.42;100.00
58769;BME280;44536;47.474;19.056;2022-11-13T16:09:39;101792.19;;;8.49;100.00
58769;BME280;44536;47.474;19.056;2022-11-13T16:12:59;101796.41;;;8.33;100.00
58769;BME280;44536;47.474;19.056;2022-11-13T16:16:24;101795.87;;;8.24;100.00
58769;BME280;44536;47.474;19.056;2022-11-13T16:19:46;101795.41;;;8.15;100.00
58769;BME280;44536;47.474;19.056;2022-11-13T16:23:10;101783.19;;;8.53;100.00
58769;BME280;44536;47.474;19.056;2022-11-13T16:26:35;101782.06;;;8.58;100.00
58769;BME280;44536;47.474;19.056;2022-11-13T16:29:55;101780.59;;;8.51;100.00
58769;BME280;44536;47.474;19.056;2022-11-13T16:33:22;101771.63;;;8.35;100.00
58769;BME280;44536;47.474;19.056;2022-11-13T16:36:42;101773.09;;;8.22;100.00
58769;BME280;44536;47.474;19.056;2022-11-13T16:40:07;101787.16;;;8.22;100.00
58769;BME280;44536;47.474;19.056;2022-11-13T16:43:34;101779.22;;;8.02;100.00
58769;BME280;44536;47.474;19.056;2022-11-13T16:46:54;101782.37;;;7.90;100.00
58769;BME280;44536;47.474;19.056;2022-11-13T16:50:18;101783.00;;;7.76;100.00
58769;BME280;44536;47.474;19.056;2022-11-13T16:53:39;101772.69;;;8.11;100.00
58769;BME280;44536;47.474;19.056;2022-11-13T16:57:00;101773.94;;;8.02;100.00
58769;BME280;44536;47.474;19.056;2022-11-13T17:00:20;101769.66;;;8.00;100.00
58769;BME280;44536;47.474;19.056;2022-11-13T17:03:41;101778.44;;;7.80;100.00
58769;BME280;44536;47.474;19.056;2022-11-13T17:07:01;101771.22;;;7.63;100.00
58769;BME280;44536;47.474;19.056;2022-11-13T17:10:22;101781.34;;;7.52;100.00
58769;BME280;44536;47.474;19.056;2022-11-13T17:13:51;101790.31;;;7.48;100.00
58769;BME280;44536;47.474;19.056;2022-11-13T17:17:12;101782.75;;;7.39;100.00
58769;BME280;44536;47.474;19.056;2022-11-13T17:20:35;101779.22;;;7.40;100.00
58769;BME280;44536;47.474;19.056;2022-11-13T17:24:01;101782.28;;;7.29;100.00
58769;BME280;44536;47.474;19.056;2022-11-13T17:27:21;101780.88;;;7.20;100.00
58769;BME280;44536;47.474;19.056;2022-11-13T17:30:41;101772.50;;;7.53;100.00
58769;BME280;44536;47.474;19.056;2022-11-13T17:34:02;101771.78;;;7.49;100.00
58769;BME280;44536;47.474;19.056;2022-11-13T17:37:22;101767.97;;;7.35;100.00
58769;BME280;44536;47.474;19.056;2022-11-13T17:40:44;101766.72;;;7.23;100.00
58769;BME280;44536;47.474;19.056;2022-11-13T17:44:05;101763.28;;;7.21;100.00
58769;BME280;44536;47.474;19.056;2022-11-13T17:47:25;101754.12;;;7.08;100.00
58769;BME280;44536;47.474;19.056;2022-11-13T17:50:54;101756.13;;;7.01;100.00
58769;BME280;44536;47.474;19.056;2022-11-13T17:54:15;101758.91;;;6.98;100.00
58769;BME280;44536;47.474;19.056;2022-11-13T17:57:35;101756.28;;;7.20;100.00
58769;BME280;44536;47.474;19.056;2022-11-13T18:01:02;101754.31;;;7.03;100.00
58769;BME280;44536;47.474;19.056;2022-11-13T18:04:23;101759.88;;;6.95;100.00
58769;BME280;44536;47.474;19.056;2022-11-13T18:07:44;101758.34;;;7.12;100.00
58769;BME280;44536;47.474;19.056;2022-11-13T18:11:05;101756.13;;;7.01;100.00
58769;BME280;44536;47.474;19.056;2022-11-13T18:14:26;101760.09;;;6.89;100.00
58769;BME280;44536;47.474;19.056;2022-11-13T18:17:46;101756.63;;;7.11;100.00
58769;BME280;44536;47.474;19.056;2022-11-13T18:21:16;101762.78;;;7.11;100.00
58769;BME280;44536;47.474;19.056;2022-11-13T18:24:44;101769.09;;;7.07;100.00
58769;BME280;44536;47.474;19.056;2022-11-13T18:28:05;101772.84;;;7.23;100.00
58769;BME280;44536;47.474;19.056;2022-11-13T18:31:26;101770.50;;;7.16;100.00
58769;BME280;44536;47.474;19.056;2022-11-13T18:34:47;101774.94;;;6.92;100.00
58769;BME280;44536;47.474;19.056;2022-11-13T18:38:07;101774.56;;;6.79;100.00
58769;BME280;44536;47.474;19.056;2022-11-13T18:41:28;101776.75;;;6.68;100.00
58769;BME280;44536;47.474;19.056;2022-11-13T18:44:49;101781.00;;;6.72;100.00
58769;BME280;44536;47.474;19.056;2022-11-13T18:48:09;101787.62;;;6.59;100.00